Time;durP1;ratioP1;P1;durP2;ratioP2;P2;SDS_P1;SDS_P2;PMS_P1;PMS_P2;Temp;Humidity;BMP_temperature;BMP_pressure;BME280_temperature;BME280_humidity;BME280_pressure;Samples;Min_cycle;Max_cycle;Signal;HPM_P1;HPM_P2
2023/10/02 00:01:17;;;;;;;40.38;14.75;;;16.50;99.90;;;15.64;100.00;101672.59;6100396;23;20455;-80
2023/10/02 00:03:48;;;;;;;31.55;14.25;;;16.50;99.90;;;15.64;100.00;101672.59;6058361;23;20448;-81
2023/10/02 00:06:16;;;;;;;33.92;14.35;;;16.60;99.90;;;15.64;100.00;101672.59;6046538;23;20633;-80
2023/10/02 00:08:42;;;;;;;37.70;13.43;;;16.60;99.90;;;15.63;100.00;101668.19;6093083;23;20025;-80
2023/10/02 00:11:35;;;;;;;31.58;12.48;;;16.50;99.90;;;15.64;100.00;101666.44;6086599;23;20471;-81
2023/10/02 00:17:08;;;;;;;30.60;11.57;;;16.50;99.90;;;15.59;100.00;101659.56;6103544;23;20399;-80
2023/10/02 00:19:36;;;;;;;31.15;13.00;;;16.50;99.90;;;15.61;100.00;101667.41;6085960;23;20048;-80
2023/10/02 00:22:34;;;;;;;31.42;12.13;;;16.50;99.90;;;15.63;100.00;101670.84;6044192;23;20057;-80
2023/10/02 00:24:58;;;;;;;34.92;13.00;;;16.50;99.90;;;15.63;100.00;101670.00;6104661;23;20067;-80
2023/10/02 00:27:24;;;;;;;30.83;12.30;;;16.60;99.90;;;15.64;100.00;101669.94;6106404;23;19997;-80
2023/10/02 00:30:07;;;;;;;32.05;12.88;;;16.60;99.90;;;15.66;100.00;101668.06;6066088;23;20016;-81
2023/10/02 00:32:40;;;;;;;31.00;12.70;;;16.60;99.90;;;15.63;100.00;101665.53;6044989;23;20723;-80
2023/10/02 00:35:14;;;;;;;31.00;12.00;;;16.60;99.90;;;15.64;100.00;101664.63;6078940;23;20456;-81
2023/10/02 00:37:46;;;;;;;25.05;12.10;;;16.60;99.90;;;15.63;100.00;101660.22;6115121;23;20084;-81
2023/10/02 00:40:20;;;;;;;32.70;12.23;;;16.60;99.90;;;15.63;100.00;101668.19;6043520;23;20018;-80
2023/10/02 00:42:55;;;;;;;31.10;11.82;;;16.60;99.90;;;15.66;100.00;101661.84;6080036;23;20014;-80
2023/10/02 00:45:38;;;;;;;34.65;12.13;;;16.60;99.90;;;15.65;100.00;101658.34;6128400;23;20024;-82
2023/10/02 00:51:05;;;;;;;31.17;11.27;;;16.60;99.90;;;15.69;100.00;101665.22;6108994;23;20028;-80
2023/10/02 00:53:38;;;;;;;27.58;11.23;;;16.60;99.90;;;15.70;100.00;101668.72;6086460;23;20013;-80
2023/10/02 00:56:19;;;;;;;27.15;11.30;;;16.60;99.90;;;15.72;100.00;101664.22;6104660;23;20020;-80
2023/10/02 00:59:14;;;;;;;27.13;11.50;;;16.60;99.90;;;15.73;100.00;101658.84;6067043;23;20065;-80
2023/10/02 01:01:41;;;;;;;23.08;11.10;;;16.60;99.90;;;15.77;100.00;101663.06;6057818;23;20049;-79
2023/10/02 01:04:10;;;;;;;22.98;10.77;;;16.70;99.90;;;15.77;100.00;101651.59;6072496;23;20088;-83
2023/10/02 01:07:01;;;;;;;29.77;11.70;;;16.70;99.90;;;15.79;100.00;101655.00;6050539;23;20030;-80
2023/10/02 01:09:33;;;;;;;24.98;11.82;;;16.70;99.90;;;15.77;100.00;101636.50;6093025;23;20037;-81
2023/10/02 01:12:03;;;;;;;25.63;10.85;;;16.70;99.90;;;15.79;100.00;101637.28;6096403;23;20017;-79
2023/10/02 01:14:50;;;;;;;30.27;10.65;;;16.70;99.90;;;15.82;100.00;101635.41;6087549;23;20528;-80
2023/10/02 01:17:26;;;;;;;30.50;11.20;;;16.70;99.90;;;15.83;100.00;101635.31;6051950;23;20021;-80
2023/10/02 01:19:53;;;;;;;30.10;11.23;;;16.70;99.90;;;15.83;100.00;101639.75;6050737;23;20017;-80
2023/10/02 01:22:27;;;;;;;27.70;11.27;;;16.70;99.90;;;15.83;100.00;101639.75;6071888;23;20010;-80
2023/10/02 01:25:12;;;;;;;21.77;10.25;;;16.70;99.90;;;15.83;100.00;101640.63;6079503;23;20017;-80
2023/10/02 01:27:46;;;;;;;22.77;9.77;;;16.70;99.90;;;15.82;100.00;101653.97;6122144;23;20005;-80
2023/10/02 01:30:16;;;;;;;25.88;9.60;;;16.70;99.90;;;15.81;100.00;101650.47;6073171;23;20028;-80
2023/10/02 01:33:12;;;;;;;26.83;10.18;;;16.70;99.90;;;15.79;100.00;101652.34;6098307;23;20001;-80
2023/10/02 01:35:51;;;;;;;27.77;9.77;;;17.20;99.90;;;15.76;100.00;101655.16;6106944;23;20056;-80
2023/10/02 01:38:31;;;;;;;29.15;11.02;;;16.70;99.90;;;15.74;100.00;101643.75;6088078;23;20427;-80
2023/10/02 01:41:16;;;;;;;23.38;9.77;;;16.70;99.90;;;15.74;100.00;101639.34;6101695;23;20013;-80
2023/10/02 01:43:49;;;;;;;25.25;10.07;;;16.70;99.90;;;15.73;100.00;101626.97;6120080;23;20013;-81
2023/10/02 01:46:18;;;;;;;24.00;10.13;;;16.60;99.90;;;15.74;100.00;101626.06;6068574;23;20017;-79
2023/10/02 01:48:45;;;;;;;27.42;10.38;;;16.60;99.90;;;15.75;100.00;101630.41;6083209;23;20683;-80
2023/10/02 01:51:15;;;;;;;21.05;9.32;;;16.60;99.90;;;15.77;100.00;101625.03;6083006;23;20412;-79
2023/10/02 01:54:03;;;;;;;27.05;9.95;;;16.70;99.90;;;15.79;100.00;101617.84;6124118;23;20020;-80
2023/10/02 01:56:36;;;;;;;23.40;9.45;;;16.70;99.90;;;15.81;100.00;101617.72;6126401;23;20549;-80
2023/10/02 01:59:11;;;;;;;19.92;8.38;;;16.70;99.90;;;15.81;100.00;101623.03;6104004;23;20052;-80
2023/10/02 02:02:12;;;;;;;22.38;8.73;;;16.70;99.90;;;15.79;100.00;101629.31;6036836;23;20729;-80
2023/10/02 02:04:42;;;;;;;19.67;8.57;;;16.70;99.90;;;15.77;100.00;101627.69;6074233;23;20014;-81
2023/10/02 02:07:08;;;;;;;20.25;8.35;;;16.70;99.90;;;15.77;100.00;101631.19;6083214;23;20590;-82
2023/10/02 02:09:44;;;;;;;17.30;7.97;;;16.70;99.90;;;15.77;100.00;101630.34;6068370;23;20484;-80
2023/10/02 02:12:10;;;;;;;20.70;9.02;;;16.60;99.90;;;15.75;100.00;101621.59;6074692;23;20072;-80
2023/10/02 02:14:51;;;;;;;26.42;8.75;;;16.60;99.90;;;15.76;100.00;101623.28;6062895;23;20016;-80
2023/10/02 02:17:23;;;;;;;18.92;8.55;;;16.70;99.90;;;15.77;100.00;101619.72;6128749;23;20025;-80
2023/10/02 02:19:49;;;;;;;21.45;8.88;;;16.60;99.90;;;15.77;100.00;101620.56;6063677;23;20073;-80
2023/10/02 02:22:23;;;;;;;19.98;8.25;;;16.60;99.90;;;15.76;100.00;101625.94;6144282;23;20380;-79
2023/10/02 02:24:53;;;;;;;22.95;8.45;;;16.60;99.90;;;15.75;100.00;101630.41;6060239;23;20016;-82
2023/10/02 02:27:20;;;;;;;21.75;8.07;;;;;;;15.74;100.00;101636.69;6095575;23;20049;-80
2023/10/02 02:29:56;;;;;;;24.98;8.55;;;16.70;99.90;;;15.75;100.00;101643.69;6109506;23;20019;-80
2023/10/02 02:35:09;;;;;;;19.58;8.32;;;16.60;99.90;;;15.70;100.00;101618.28;6102461;23;19920;-81
2023/10/02 02:37:42;;;;;;;24.50;8.85;;;16.60;99.90;;;15.71;100.00;101620.91;6065521;23;20018;-79
2023/10/02 02:40:29;;;;;;;23.15;9.13;;;16.60;99.90;;;15.73;100.00;101615.50;6080451;23;20407;-80
2023/10/02 02:43:12;;;;;;;20.20;8.52;;;16.60;99.90;;;15.75;100.00;101609.16;6074333;23;20096;-80
2023/10/02 02:45:38;;;;;;;21.70;7.97;;;16.60;99.90;;;15.76;100.00;101616.19;6038730;23;20807;-82
2023/10/02 02:48:07;;;;;;;21.80;8.15;;;16.70;99.90;;;15.75;100.00;101611.81;6019621;23;20062;-80
2023/10/02 02:50:43;;;;;;;25.88;8.85;;;16.70;99.90;;;15.77;100.00;101606.44;6035172;23;20014;-80
2023/10/02 02:53:17;;;;;;;18.25;8.27;;;16.70;99.90;;;15.77;100.00;101617.06;6086209;23;20016;-82
2023/10/02 02:56:18;;;;;;;23.98;8.60;;;16.70;99.90;;;15.78;100.00;101613.44;6041919;23;20525;-80
2023/10/02 02:58:45;;;;;;;18.13;8.25;;;16.70;99.90;;;15.77;100.00;101614.41;6109643;23;20033;-80
2023/10/02 03:01:24;;;;;;;17.88;8.38;;;16.70;99.90;;;15.77;100.00;101606.44;6101731;23;20409;-81
2023/10/02 03:03:55;;;;;;;19.02;7.93;;;16.70;99.90;;;15.78;100.00;101602.81;6068575;23;20025;-80
2023/10/02 03:06:44;;;;;;;20.27;8.40;;;16.70;99.90;;;15.78;100.00;101610.78;6075600;22;20021;-82
2023/10/02 03:09:23;;;;;;;18.83;8.35;;;16.70;99.90;;;15.78;100.00;101606.34;6087735;23;20042;-80
2023/10/02 03:11:50;;;;;;;19.13;8.10;;;16.70;99.90;;;15.78;100.00;101613.44;6119183;23;20029;-81
2023/10/02 03:14:16;;;;;;;16.90;7.25;;;16.70;99.90;;;15.81;100.00;101612.41;6101044;23;20012;-80
2023/10/02 03:16:45;;;;;;;20.40;8.40;;;16.70;99.90;;;15.79;100.00;101605.41;6073414;23;20080;-80
2023/10/02 03:19:16;;;;;;;19.52;8.45;;;16.70;99.90;;;15.82;100.00;101611.50;6060193;23;20060;-81
2023/10/02 03:21:42;;;;;;;22.08;7.93;;;16.70;99.90;;;15.83;100.00;101602.56;6118342;23;20013;-80
2023/10/02 03:24:12;;;;;;;22.13;7.90;;;16.70;99.90;;;15.83;100.00;101607.88;6097399;23;20361;-80
2023/10/02 03:26:44;;;;;;;18.77;8.35;;;16.70;99.90;;;15.83;100.00;101602.56;6070653;23;20519;-80
2023/10/02 03:29:21;;;;;;;19.10;8.82;;;16.70;99.90;;;15.81;100.00;101605.34;6087403;23;20347;-80
2023/10/02 03:31:51;;;;;;;18.65;8.48;;;16.70;99.90;;;15.80;100.00;101598.28;6107525;23;20009;-80
2023/10/02 03:34:27;;;;;;;20.23;8.40;;;16.70;99.90;;;15.83;100.00;101597.25;6133984;23;20020;-80
2023/10/02 03:40:14;;;;;;;21.98;8.70;;;16.70;99.90;;;15.86;100.00;101584.69;6081646;23;20021;-82
2023/10/02 03:42:47;;;;;;;22.75;8.43;;;16.80;99.90;;;15.85;100.00;101588.25;6101917;23;20080;-80
2023/10/02 03:45:13;;;;;;;27.70;8.77;;;16.80;99.90;;;15.83;100.00;101581.34;6081388;23;20035;-80
2023/10/02 03:47:41;;;;;;;19.58;7.93;;;16.70;99.90;;;15.86;100.00;101589.16;6062020;23;20514;-80
2023/10/02 03:50:12;;;;;;;19.52;8.00;;;16.70;99.90;;;15.86;100.00;101590.00;6067512;23;20022;-80
2023/10/02 03:52:41;;;;;;;17.80;8.20;;;16.80;99.90;;;15.88;100.00;101581.94;6105001;23;20012;-81
2023/10/02 03:55:17;;;;;;;23.42;8.23;;;16.80;99.90;;;15.88;100.00;101566.03;6084121;23;20040;-80
2023/10/02 03:57:47;;;;;;;28.90;8.85;;;16.80;99.90;;;15.89;100.00;101562.41;6048562;23;20022;-79
2023/10/02 04:00:27;;;;;;;22.55;8.45;;;16.80;99.90;;;15.88;100.00;101555.41;6089767;23;20506;-80
2023/10/02 04:02:59;;;;;;;17.98;8.30;;;16.80;99.90;;;15.90;100.00;101561.47;6068491;23;20017;-80
2023/10/02 04:05:32;;;;;;;22.00;8.07;;;16.80;99.90;;;15.90;100.00;101558.81;6078786;23;20017;-80
2023/10/02 04:08:22;;;;;;;17.25;8.18;;;16.80;99.90;;;15.90;100.00;101553.50;6079959;23;20037;-80
2023/10/02 04:10:56;;;;;;;20.38;8.48;;;16.80;99.90;;;15.87;100.00;101556.31;6121184;23;20336;-81
2023/10/02 04:13:36;;;;;;;20.48;8.25;;;16.70;99.90;;;15.85;100.00;101563.50;6099821;23;20016;-80
2023/10/02 04:16:28;;;;;;;21.65;8.35;;;16.70;99.90;;;15.82;100.00;101561.03;6079362;23;20016;-80
2023/10/02 04:19:02;;;;;;;20.23;8.55;;;16.70;99.90;;;15.79;100.00;101551.47;6071208;23;20028;-80
2023/10/02 04:21:31;;;;;;;23.73;9.30;;;16.70;99.90;;;15.76;100.00;101555.09;6082517;23;20092;-80
2023/10/02 04:23:59;;;;;;;18.42;8.15;;;16.70;99.90;;;15.74;100.00;101551.72;6062148;23;20024;-79
2023/10/02 04:26:33;;;;;;;23.23;8.35;;;16.60;99.90;;;15.75;100.00;101547.25;6090954;22;20060;-80
2023/10/02 04:29:13;;;;;;;18.20;8.45;;;16.60;99.90;;;15.74;100.00;101548.19;6098742;23;20041;-80
2023/10/02 04:31:43;;;;;;;18.80;8.38;;;16.60;99.90;;;15.73;100.00;101554.44;6114783;23;20013;-80
2023/10/02 04:36:51;;;;;;;22.17;9.05;;;16.60;99.90;;;15.73;100.00;101549.97;6156614;22;20001;-81
2023/10/02 04:42:22;;;;;;;19.67;8.27;;;16.70;99.90;;;15.75;100.00;101560.53;6115213;22;20042;-79
2023/10/02 04:45:14;;;;;;;;;;;;;;;;;;;;;
2023/10/02 04:47:40;;;;;;;22.10;8.93;;;16.60;99.90;;;15.74;100.00;101550.84;6169540;22;20172;-81
2023/10/02 04:55:46;;;;;;;27.75;9.18;;;16.70;99.90;;;15.77;100.00;101517.00;6130131;23;20406;-81
2023/10/02 04:58:19;;;;;;;19.92;8.30;;;16.70;99.90;;;15.76;100.00;101520.59;6116488;22;20004;-80
2023/10/02 05:03:36;;;;;;;26.90;9.98;;;16.70;99.90;;;15.81;100.00;101533.63;6097980;22;20016;-79
2023/10/02 05:06:03;;;;;;;23.20;8.68;;;16.70;99.90;;;15.82;100.00;101535.34;6139544;22;20509;-81
2023/10/02 05:08:40;;;;;;;19.42;9.23;;;16.70;99.90;;;15.85;100.00;101542.28;6130851;22;20008;-81
2023/10/02 05:11:08;;;;;;;20.58;9.38;;;16.70;99.90;;;15.87;100.00;101551.00;6146888;22;20518;-79
2023/10/02 05:16:35;;;;;;;18.90;9.10;;;16.80;99.90;;;15.89;100.00;101543.81;6121305;22;20014;-81
2023/10/02 05:19:05;;;;;;;24.33;9.65;;;16.80;99.90;;;15.90;100.00;101546.41;6095944;22;20008;-80
2023/10/02 05:21:36;;;;;;;17.17;9.25;;;16.80;99.90;;;15.92;100.00;101547.16;6106473;22;20871;-80
2023/10/02 05:24:06;;;;;;;22.98;9.70;;;16.80;99.90;;;15.92;100.00;101539.19;6074525;22;20008;-80
2023/10/02 05:26:34;;;;;;;19.33;9.18;;;16.80;99.90;;;15.93;100.00;101546.22;6123900;23;20455;-80
2023/10/02 05:29:07;;;;;;;25.10;9.52;;;16.80;99.90;;;15.95;100.00;101543.47;6115782;23;20021;-81
2023/10/02 05:31:40;;;;;;;25.33;9.75;;;16.80;99.90;;;15.99;100.00;101553.00;6128179;22;20009;-80
2023/10/02 05:34:13;;;;;;;22.88;9.13;;;16.90;99.90;;;15.99;100.00;101550.34;6141559;22;20073;-80
2023/10/02 05:39:46;;;;;;;20.63;8.82;;;16.90;99.90;;;15.99;100.00;101547.69;6069188;23;20069;-81
2023/10/02 05:42:16;;;;;;;23.00;9.63;;;16.90;99.90;;;15.98;100.00;101554.78;6071127;23;20025;-80
2023/10/02 05:44:47;;;;;;;23.05;9.13;;;16.90;99.90;;;15.98;100.00;101548.59;6042102;23;20079;-82
2023/10/02 05:47:16;;;;;;;23.17;9.77;;;16.90;99.90;;;15.99;100.00;101548.53;6047131;23;20021;-80
2023/10/02 05:49:47;;;;;;;22.65;9.48;;;16.90;99.90;;;15.98;100.00;101548.59;6073652;23;20037;-80
2023/10/02 05:52:20;;;;;;;22.85;9.15;;;16.90;99.90;;;15.96;100.00;101559.34;6026724;23;20014;-80
2023/10/02 05:54:49;;;;;;;19.55;8.93;;;16.90;99.90;;;15.95;100.00;101554.09;6064128;23;20025;-80
2023/10/02 05:57:16;;;;;;;24.90;9.85;;;16.90;99.90;;;15.95;100.00;101548.78;6071191;23;20009;-79
2023/10/02 05:59:47;;;;;;;23.42;9.43;;;16.80;99.90;;;15.96;100.00;101564.66;6089069;23;20044;-80
2023/10/02 06:02:22;;;;;;;22.48;8.98;;;16.90;99.90;;;15.96;100.00;101553.16;6057802;23;20055;-80
2023/10/02 06:04:53;;;;;;;22.13;8.93;;;16.80;99.90;;;15.95;100.00;101562.06;6081119;23;20010;-81
2023/10/02 06:10:10;;;;;;;21.92;10.15;;;16.90;99.90;;;15.94;100.00;101557.72;6082606;23;20021;-80
2023/10/02 06:12:54;;;;;;;24.42;10.50;;;16.80;99.90;;;15.94;100.00;101565.69;6075181;23;20137;-79
2023/10/02 06:18:12;;;;;;;22.35;9.75;;;16.90;99.90;;;15.97;100.00;101562.84;6122859;23;20020;-80
2023/10/02 06:20:57;;;;;;;27.73;10.27;;;16.90;99.90;;;15.96;100.00;101562.00;6067164;23;20447;-81
2023/10/02 06:23:24;;;;;;;26.27;9.73;;;16.90;99.90;;;15.96;100.00;101562.00;6141800;22;20102;-80
2023/10/02 06:25:56;;;;;;;30.20;10.30;;;16.90;99.90;;;15.98;100.00;101562.75;6067745;23;20459;-80
2023/10/02 06:28:27;;;;;;;24.60;10.27;;;16.90;99.90;;;15.99;100.00;101561.81;6097462;22;20017;-80
2023/10/02 06:30:58;;;;;;;23.70;10.57;;;16.90;99.90;;;16.04;100.00;101561.53;6153234;23;20017;-80
2023/10/02 06:33:24;;;;;;;24.85;9.55;;;16.90;99.90;;;16.07;100.00;101573.78;6120367;22;20040;-81
2023/10/02 06:35:57;;;;;;;19.42;10.45;;;17.00;99.90;;;16.08;100.00;101568.41;6126594;22;20021;-81
2023/10/02 06:38:28;;;;;;;21.52;10.70;;;17.00;99.90;;;16.13;100.00;101563.72;6088219;22;20104;-80
2023/10/02 06:40:57;;;;;;;25.85;10.10;;;17.10;99.90;;;16.16;100.00;101568.84;6149874;22;20390;-80
2023/10/02 06:43:33;;;;;;;28.13;10.82;;;17.00;99.90;;;16.20;100.00;101566.88;6067515;23;20020;-80
2023/10/02 06:46:19;;;;;;;32.53;10.77;;;17.10;99.90;;;16.26;100.00;101565.66;6120188;22;20016;-82
2023/10/02 06:48:46;;;;;;;24.38;10.32;;;17.10;99.90;;;16.28;100.00;101572.56;6114281;22;20005;-80
2023/10/02 06:51:15;;;;;;;28.52;10.88;;;17.20;99.90;;;16.31;100.00;101584.84;6053575;22;20350;-80
2023/10/02 06:53:42;;;;;;;24.73;10.48;;;17.20;99.90;;;16.33;100.00;101577.66;6147465;22;20024;-81
2023/10/02 06:56:12;;;;;;;29.45;10.73;;;17.20;99.90;;;16.34;100.00;101576.69;6143594;22;20083;-81
2023/10/02 06:58:54;;;;;;;22.45;10.40;;;17.20;99.90;;;16.37;100.00;101584.47;6094462;22;20679;-80
2023/10/02 07:01:27;;;;;;;26.40;10.93;;;17.30;99.90;;;16.39;100.00;101585.25;6129573;22;20020;-80
2023/10/02 07:03:56;;;;;;;28.58;10.90;;;17.30;99.90;;;16.41;100.00;101594.00;6133943;22;20024;-80
2023/10/02 07:06:25;;;;;;;25.10;10.85;;;17.30;99.90;;;16.42;100.00;101595.72;6134451;22;20714;-80
2023/10/02 07:09:10;;;;;;;23.02;10.55;;;17.30;99.90;;;16.44;100.00;101601.81;6082994;22;20075;-80
2023/10/02 07:11:46;;;;;;;27.35;11.07;;;17.30;99.90;;;16.48;100.00;101608.66;6131806;22;20058;-80
2023/10/02 07:14:12;;;;;;;22.33;9.98;;;17.40;99.90;;;16.51;100.00;101599.66;6187124;22;20035;-80
2023/10/02 07:16:38;;;;;;;26.77;10.93;;;17.40;99.90;;;16.53;100.00;101598.63;6135148;22;20017;-81
2023/10/02 07:19:04;;;;;;;24.83;10.30;;;17.40;99.90;;;16.58;100.00;101595.69;6113898;22;20013;-80
2023/10/02 07:21:31;;;;;;;33.78;11.65;;;17.50;99.90;;;16.63;100.00;101606.06;6119355;23;20224;-80
2023/10/02 07:24:27;;;;;;;23.70;11.18;;;17.50;99.90;;;16.67;100.00;101599.63;6165058;22;20016;-80
2023/10/02 07:27:03;;;;;;;24.70;10.32;;;17.50;99.90;;;16.70;100.00;101588.81;6104955;22;20020;-80
2023/10/02 07:29:40;;;;;;;23.67;11.10;;;17.60;99.90;;;16.74;100.00;101593.00;6084556;22;20096;-81
2023/10/02 07:32:06;;;;;;;21.60;10.45;;;17.60;99.90;;;16.78;100.00;101592.72;6110751;23;20490;-80
2023/10/02 07:34:32;;;;;;;25.95;11.38;;;17.60;99.90;;;16.85;100.00;101597.72;6094207;23;20020;-81
2023/10/02 07:36:59;;;;;;;25.80;10.88;;;17.70;99.90;;;16.86;100.00;101594.97;6109207;22;20012;-81
2023/10/02 07:39:37;;;;;;;20.90;10.18;;;17.80;99.90;;;16.90;100.00;101596.50;6098244;22;20020;-80
2023/10/02 07:42:13;;;;;;;25.45;10.85;;;17.80;99.90;;;16.93;100.00;101591.00;6075366;22;20024;-80
2023/10/02 07:44:41;;;;;;;26.17;11.07;;;17.80;99.90;;;16.96;100.00;101596.13;6123264;22;20175;-80
2023/10/02 07:47:21;;;;;;;22.98;10.95;;;17.80;99.90;;;17.01;100.00;101593.19;6091955;22;20020;-80
2023/10/02 07:49:54;;;;;;;26.27;11.30;;;17.90;99.90;;;17.05;100.00;101596.53;6154653;22;20011;-80
2023/10/02 07:52:29;;;;;;;25.92;11.45;;;17.90;99.90;;;17.08;100.00;101589.19;6121168;22;20043;-81
2023/10/02 07:54:59;;;;;;;30.00;11.40;;;18.00;99.90;;;17.11;100.00;101593.50;6150970;22;20022;-80
2023/10/02 07:57:32;;;;;;;23.63;10.23;;;18.00;99.90;;;17.15;100.00;101601.22;6116273;22;20389;-80
2023/10/02 08:00:33;;;;;;;22.38;10.32;;;18.00;99.90;;;17.19;100.00;101597.41;6134274;22;20052;-80
2023/10/02 08:03:04;;;;;;;30.42;11.57;;;18.10;99.90;;;17.29;100.00;101587.06;6116154;22;20016;-80
2023/10/02 08:05:34;;;;;;;28.55;11.10;;;18.20;99.90;;;17.38;100.00;101586.47;6121558;22;20012;-80
2023/10/02 08:08:11;;;;;;;28.30;11.38;;;18.30;99.90;;;17.49;100.00;101593.81;6133347;22;20012;-80
2023/10/02 08:10:52;;;;;;;28.63;11.10;;;18.40;99.90;;;17.62;100.00;101588.56;6114870;22;20012;-80
2023/10/02 08:13:32;;;;;;;24.30;10.70;;;18.50;99.90;;;17.72;100.00;101589.72;6083554;22;20012;-81
2023/10/02 08:16:15;;;;;;;26.67;11.35;;;18.60;99.90;;;17.76;100.00;101606.38;6161589;22;20467;-81
2023/10/02 08:18:59;;;;;;;27.40;12.05;;;18.60;99.90;;;17.80;99.99;101599.91;6093730;22;20015;-80
2023/10/02 08:21:38;;;;;;;27.85;11.18;;;18.70;99.90;;;17.84;99.18;101598.78;6088184;23;20024;-80
2023/10/02 08:24:11;;;;;;;28.50;11.48;;;18.70;99.90;;;17.94;98.33;101599.03;6108161;22;20583;-80
2023/10/02 08:26:43;;;;;;;27.08;11.77;;;18.80;99.90;;;18.04;97.80;101608.16;6118408;22;20017;-79
2023/10/02 08:29:15;;;;;;;28.58;11.50;;;18.90;99.90;;;18.16;97.08;101602.06;6078189;23;20087;-80
2023/10/02 08:32:04;;;;;;;27.38;12.10;;;19.00;99.90;;;18.30;96.36;101610.97;6067223;22;20029;-80
2023/10/02 08:34:30;;;;;;;22.70;10.88;;;19.10;99.90;;;18.37;95.74;101599.78;6146789;22;20008;-81
2023/10/02 08:37:07;;;;;;;25.52;11.57;;;19.20;99.90;;;18.48;95.73;101600.88;6148018;22;20516;-80
2023/10/02 08:39:35;;;;;;;24.10;11.65;;;19.30;99.90;;;18.55;94.86;101596.84;6092961;22;20023;-80
2023/10/02 08:42:09;;;;;;;28.33;11.98;;;19.40;99.90;;;18.60;94.18;101589.41;6123630;22;20115;-81
2023/10/02 08:44:40;;;;;;;25.10;10.85;;;19.50;99.90;;;18.64;93.86;101596.25;6099884;22;20020;-80
2023/10/02 08:47:24;;;;;;;25.83;11.55;;;19.50;99.90;;;18.68;92.84;101596.88;6126856;22;20012;-81
2023/10/02 08:50:04;;;;;;;27.20;12.23;;;19.60;99.90;;;18.74;92.03;101605.34;6093698;22;20020;-80
2023/10/02 08:52:50;;;;;;;25.77;12.98;;;19.60;99.90;;;18.82;91.72;101607.53;6121312;22;20451;-81
2023/10/02 08:55:35;;;;;;;29.50;11.80;;;19.70;99.90;;;18.91;92.34;101614.06;6166028;23;20004;-79
2023/10/02 08:58:15;;;;;;;29.77;11.65;;;19.70;99.90;;;18.96;92.28;101599.47;6087233;22;20556;-81
2023/10/02 09:04:36;;;;;;;27.33;11.63;;;19.90;99.90;;;19.08;91.24;101596.91;6186250;22;20017;-80
2023/10/02 09:06:44;;;;;;;26.17;11.82;;;19.90;99.90;;;19.14;90.19;101586.66;6150277;22;20012;-81
2023/10/02 09:09:27;;;;;;;26.55;11.65;;;20.00;99.90;;;19.29;89.66;101583.84;6142111;23;20035;-82
2023/10/02 09:12:03;;;;;;;26.77;12.43;;;20.10;99.90;;;19.43;88.28;101587.28;6124854;23;20009;-81
2023/10/02 09:17:16;;;;;;;28.13;11.57;;;20.50;99.90;;;19.85;86.12;101590.56;6109198;22;20016;-79
2023/10/02 09:20:07;;;;;;;28.48;11.98;;;20.70;99.90;;;20.11;84.80;101593.16;6134066;23;20009;-79
2023/10/02 09:22:37;;;;;;;28.77;12.18;;;20.90;99.90;;;20.29;84.10;101591.81;6151683;23;20061;-78
2023/10/02 09:25:26;;;;;;;32.22;11.95;;;21.10;99.90;;;20.40;82.73;101588.31;6125204;23;20009;-79
2023/10/02 09:27:57;;;;;;;27.60;12.43;;;21.20;99.90;;;20.49;81.65;101586.78;6130586;22;20443;-78
2023/10/02 09:30:36;;;;;;;29.77;12.95;;;21.30;99.90;;;20.60;81.56;101594.88;6171796;23;20020;-79
2023/10/02 09:33:22;;;;;;;27.65;11.85;;;21.40;99.90;;;20.68;80.13;101589.81;6134146;22;20021;-80
2023/10/02 09:35:52;;;;;;;26.37;11.83;;;21.40;99.90;;;20.68;78.42;101597.84;6155617;22;20016;-78
2023/10/02 09:38:23;;;;;;;27.27;12.10;;;21.50;99.90;;;20.62;77.66;101595.63;6105346;22;20374;-78
2023/10/02 09:43:35;;;;;;;28.65;12.35;;;21.40;99.90;;;20.52;78.38;101588.38;6149549;22;20016;-78
2023/10/02 09:46:26;;;;;;;24.10;11.77;;;21.30;99.90;;;20.53;78.32;101587.41;6105394;22;20013;-80
2023/10/02 09:49:19;;;;;;;25.83;11.73;;;21.30;99.90;;;20.51;77.75;101584.84;6145243;22;20049;-78
2023/10/02 09:52:23;;;;;;;28.85;11.70;;;21.30;99.90;;;20.52;78.13;101583.91;6129385;22;20016;-79
2023/10/02 09:55:12;;;;;;;27.13;12.35;;;21.30;99.90;;;20.57;78.01;101583.56;6145668;23;20467;-79
2023/10/02 09:57:50;;;;;;;28.15;12.23;;;21.40;99.90;;;20.63;78.59;101589.31;6150475;23;20491;-79
2023/10/02 10:00:33;;;;;;;28.60;13.10;;;21.40;99.90;;;20.68;78.07;101581.78;6143604;23;20024;-79
2023/10/02 10:03:31;;;;;;;30.00;12.00;;;21.50;99.90;;;20.73;77.88;101577.91;6114926;22;20036;-79
2023/10/02 10:06:19;;;;;;;26.50;11.35;;;21.50;99.90;;;20.74;77.94;101585.00;6143269;22;20723;-79
2023/10/02 10:12:21;;;;;;;30.13;12.60;;;21.60;99.90;;;20.77;76.77;101587.41;6169346;22;20019;-79
2023/10/02 10:14:45;;;;;;;24.33;12.15;;;21.60;99.90;;;20.80;77.00;101576.47;6142945;22;20037;-79
2023/10/02 10:17:20;;;;;;;27.67;12.68;;;21.60;99.90;;;20.81;76.57;101580.88;6176351;23;20005;-79
2023/10/02 10:23:02;;;;;;;28.05;12.70;;;21.70;99.90;;;20.87;76.29;101591.94;6105576;23;20029;-79
2023/10/02 10:28:32;;;;;;;28.50;14.15;;;21.70;99.90;;;20.98;75.80;101595.63;6137536;23;20095;-80
2023/10/02 10:31:02;;;;;;;31.70;13.73;;;21.80;99.90;;;21.01;75.88;101592.72;6131782;23;20013;-79
2023/10/02 10:33:36;;;;;;;33.97;13.50;;;21.80;99.90;;;21.06;75.54;101596.75;6133457;23;20009;-79
2023/10/02 10:36:09;;;;;;;28.20;12.80;;;21.90;99.90;;;21.09;75.08;101588.47;6152752;23;20013;-79
2023/10/02 10:38:44;;;;;;;32.03;12.95;;;21.90;99.90;;;21.09;74.83;101588.47;6138881;23;20084;-79
2023/10/02 10:41:35;;;;;;;34.67;13.13;;;21.90;99.90;;;21.14;74.49;101588.09;6159345;23;20690;-79
2023/10/02 10:44:12;;;;;;;30.45;13.63;;;21.90;99.90;;;21.20;75.10;101581.44;6162714;23;20017;-79
2023/10/02 10:46:55;;;;;;;26.27;12.88;;;22.00;99.90;;;21.25;74.23;101580.13;6179260;22;20071;-80
2023/10/02 10:49:27;;;;;;;29.55;13.27;;;22.00;99.90;;;21.26;74.34;101580.97;6144593;23;20008;-79
2023/10/02 10:51:57;;;;;;;31.25;14.07;;;22.00;99.90;;;21.26;73.91;101583.63;6158566;23;20074;-79
2023/10/02 10:54:26;;;;;;;30.08;13.38;;;22.00;99.90;;;21.29;74.17;101578.03;6139698;23;20080;-79
2023/10/02 10:57:27;;;;;;;28.42;13.60;;;22.10;99.90;;;21.34;74.19;101581.22;6188625;23;20012;-79
2023/10/02 11:00:31;;;;;;;;;;;22.10;99.90;;;21.35;73.58;101582.06;6162758;23;20029;-79
2023/10/02 11:03:13;;;;;;;29.15;13.63;;;22.20;99.90;;;21.42;74.18;101581.47;6161410;23;19916;-79
2023/10/02 11:05:44;;;;;;;39.42;13.70;;;22.20;99.90;;;21.52;74.50;101583.44;6176464;23;20028;-79
2023/10/02 11:08:28;;;;;;;23.63;12.15;;;22.30;99.90;;;21.55;73.70;101577.81;6159915;23;20059;-79
2023/10/02 11:11:21;;;;;;;30.27;13.55;;;22.30;99.90;;;21.59;73.64;101576.59;6169140;23;20116;-79
2023/10/02 11:13:58;;;;;;;29.00;13.50;;;22.40;99.90;;;21.66;73.08;101575.13;6182406;23;20108;-79
2023/10/02 11:16:40;;;;;;;33.47;13.32;;;22.40;99.90;;;21.70;73.45;101568.56;6141761;23;20438;-79
2023/10/02 11:22:23;;;;;;;32.22;13.15;;;22.60;99.90;;;21.85;72.22;101559.28;6203639;23;20024;-79
2023/10/02 11:25:00;;;;;;;26.13;13.18;;;22.60;99.90;;;21.98;72.87;101564.50;6182508;23;20067;-79
2023/10/02 11:27:29;;;;;;;31.15;12.70;;;22.80;99.90;;;22.12;72.70;101555.31;6189107;23;20016;-79
2023/10/02 11:30:02;;;;;;;34.70;12.73;;;22.90;99.90;;;22.24;72.00;101559.69;6172484;23;20016;-79
2023/10/02 11:32:58;;;;;;;27.70;12.25;;;23.00;99.90;;;22.29;70.78;101549.44;6134035;23;20017;-79